x

Yucatan Basin - 120 Nm Ese Of Cozumel, Mx (42056) Wave Buoy

1:50pm - Tue 25th Nov 2014 All times are CST. -6 hours from GMT.

  • Sig Wave height 3.9ft
  • Swell Direction
  • Peak Period 5s
  • Average Period 5s
  • Wind
    16mph, 20mph gusts
  • Sea Temp 83°f
  • Air Temp 84°f
  • Sea Pressure 1011.4mb
  •  Yucatan Basin - 120 Nm Ese Of Cozumel, Mx
  •  Yucatan Basin - 120 Nm Ese Of Cozumel, Mx

More Historic Weather Station data

Upgrade to MSW Pro to gain access to the past 30 days of data for over 8000 Wavebouys and Weather Stations around the globe.

Join Pro

Comparision Forecast

View Surf forecast
   
Tue 11/25 1:50pm 4ft 5s 5s 16 20 mph 1011.4mb 83f 84f
12:50pm 4.5ft 8s 5s 16 18 mph 1012.1mb 83f 83f
11:50am 4.5ft 5s 5s 18 20 mph 1012.6mb 83f 83f
10:50am 4ft 7s 5s 20 25 mph 1013.4mb 83f 83f
9:50am 4ft 7s 5s 16 20 mph 1014.2mb 83f 83f
8:50am 4ft 7s 5s 16 20 mph 1014.3mb 83f 83f
7:50am 4ft 7s 5s 16 18 mph 1014mb 83f 83f
6:50am 4ft 7s 5s 18 20 mph 1013.6mb 83f 83f
5:50am 4ft 7s 5s 16 18 mph 1013mb 83f 83f
4:50am 4ft 8s 5s 16 18 mph 1012.2mb 83f 83f
3:50am 3.5ft 8s 5s 13 16 mph 1012.2mb 83f 82f
2:50am 3.5ft 7s 5s 13 16 mph 1011.9mb 83f 82f
1:50am 3.5ft 6s 5s 16 18 mph 1012.3mb 83f 82f
12:50am 3.5ft 7s 5s 13 16 mph 1012.9mb 83f 83f
Mon 11/24 11:50pm 3.5ft 6s 5s 13 16 mph 1013.5mb 83f 82f
10:50pm 3.5ft 8s 5s 9 11 mph 1013.9mb 83f 83f
8:50pm 3.5ft 6s 5s 13 16 mph 1013.8mb 83f 82f
7:50pm 3.5ft 6s 5s 13 16 mph 1013.1mb 83f 82f
6:50pm 3.5ft 5s 5s 13 16 mph 1012.2mb 83f 82f
5:50pm 3.5ft 7s 5s 13 16 mph 1011.6mb 83f 83f
4:50pm 3.5ft 6s 5s 11 13 mph 1011.3mb 83f 83f
3:50pm 4ft 8s 5s 11 13 mph 1011.1mb 83f 83f
2:50pm 3.5ft 6s 5s 9 11 mph 1011mb 83f 83f
1:50pm 4ft 6s 5s 9 11 mph 1011mb 83f 83f
12:50pm 3.5ft 5s 5s 11 13 mph 1011.2mb 83f 83f
11:50am 3.5ft 5s 5s 11 13 mph 1012.4mb 83f 83f
10:50am 3.5ft 5s 5s 20 34 mph 1013mb 83f 82f
9:50am 3.5ft 6s 5s 13 18 mph 1013.5mb 83f 83f
8:50am 3.5ft 7s 5s 16 18 mph 1013.2mb 83f 83f
7:50am 3.5ft 5s 5s 13 16 mph 1012.8mb 83f 83f
6:50am 3.5ft 5s 5s 16 18 mph 1011.9mb 83f 83f
5:50am 3.5ft 7s 5s 16 18 mph 1011.4mb 83f 83f
4:50am 4ft 6s 5s 11 13 mph 1010.8mb 83f 83f
3:50am 3.5ft 7s 5s 11 13 mph 1010.3mb 83f 82f
2:50am 3.5ft 6s 5s 13 16 mph 1010.3mb 83f 82f
1:50am 3.5ft 5s 5s 13 16 mph 1010.3mb 83f 82f
12:50am 4ft 6s 5s 18 20 mph 1010.3mb 83f 82f
Sun 11/23 11:50pm 3.5ft 5s 5s 18 20 mph 1010.4mb 83f 82f
10:50pm 3.5ft 5s 4s 16 18 mph 1011.2mb 83f 82f
9:50pm 3.5ft 6s 4s 18 20 mph 1011.3mb 83f 83f
8:50pm 3.5ft 6s 4s 18 20 mph 1011.2mb 83f 83f
7:50pm 3.5ft 6s 4s 16 18 mph 1010.7mb 83f 83f
6:50pm 3.5ft 6s 4s 16 18 mph 1010.2mb 83f 83f
5:50pm 3.5ft 6s 4s 16 18 mph 1009.7mb 83f 83f
4:50pm 3.5ft 5s 4s 16 20 mph 1009.1mb 83f 83f
3:50pm 3.5ft 6s 5s 16 20 mph 1009.5mb 83f 83f
2:50pm 3.5ft 6s 5s 16 20 mph 1009.4mb 83f 83f
1:50pm 3.5ft 6s 5s 13 18 mph 1009.8mb 83f 83f
12:50pm 3.5ft 6s 5s 13 16 mph 1010.4mb 83f 83f
11:50am 3.5ft 6s 5s 13 16 mph 1011.8mb 83f 83f
10:50am 3.5ft 6s 5s 11 13 mph 1012.8mb 83f 83f
9:50am 3.5ft 5s  -  13 16 mph 1013.5mb 83f 83f
8:50am 3.5ft 5s 5s 13 16 mph 1013.5mb 83f 83f
7:50am 3.5ft 8s 5s 16 18 mph 1013mb 83f 83f
6:50am 3.5ft 8s 5s 13 16 mph 1012.4mb 83f 82f
5:50am 2.5ft 7s 4s 13 18 mph 1012mb 83f 81f
4:50am 2.5ft 8s 5s 13 18 mph 1011.8mb 83f 82f
3:50am 2.5ft 9s 5s 11 13 mph 1011.7mb 83f 82f
2:50am 2.5ft 5s 5s 9 11 mph 1012mb 83f 82f
1:50am 3ft 8s 5s 9 11 mph 1012.3mb 83f 82f
12:50am 3ft 8s 5s 11 13 mph 1013.1mb 83f 82f
Sat 11/22 11:50pm 3ft 8s 5s 13 16 mph 1013.5mb 83f 82f
10:50pm 3ft 8s 4s 13 16 mph 1013.9mb 83f 82f
9:50pm 3ft 7s 4s 13 16 mph 1014.3mb 83f 82f
8:50pm 2.5ft 5s 5s 11 13 mph 1014.4mb 83f 82f
7:50pm 3ft 5s 5s 13
mph
1014.1mb 83f 82f
6:50pm 2.5ft 8s 5s 11 13 mph 1013.7mb 83f 82f
5:50pm 3ft 8s 5s 11 13 mph 1013mb 83f 82f
4:50pm 3ft 8s 4s 11 13 mph 1012.9mb 83f 82f
3:50pm 3ft 8s 5s 13
mph
1012.7mb 83f 82f
2:50pm 3ft 8s 4s 13 16 mph 1012.9mb 83f 82f
1:50pm 3ft 8s 5s 9 11 mph 1013.4mb 83f 83f
12:50pm 2.5ft 7s 4s 11 13 mph 1013.9mb 83f 82f
11:50am 3ft 8s 5s 13
mph
1015mb 83f 83f
10:50am 3ft 8s 5s 13 18 mph 1015.8mb 83f 82f
9:50am 2.5ft 8s 4s 13 16 mph 1016.5mb 83f 82f
8:50am 2.5ft 8s 5s 16 18 mph 1016.3mb 83f 82f
7:50am 2.5ft 8s 5s 11 16 mph 1016mb 83f 82f
6:50am 2.5ft 7s 5s 11 16 mph 1015.7mb 83f 82f
5:50am 2.5ft 8s 5s 11 13 mph 1015.5mb 83f 82f
4:50am 2.5ft 7s 5s 11 13 mph 1015.2mb 83f 81f
3:50am 2.5ft 8s 5s 13 16 mph 1014.8mb 83f 82f
2:50am 2.5ft 8s 5s 11 13 mph 1014.8mb 83f 81f
1:50am 2.5ft 8s 5s 11 13 mph 1014.9mb 83f 81f
12:50am 2.5ft 7s 5s 11 13 mph 1015.2mb 83f 81f
Fri 11/21 11:50pm 2.5ft 8s 5s 11 13 mph 1015.6mb 83f 81f
10:50pm 2.5ft 8s 5s 11
mph
1016.2mb 83f 82f
9:50pm 2.5ft 8s 5s 11 13 mph 1016.4mb 83f 82f